Time;durP1;ratioP1;P1;durP2;ratioP2;P2;SDS_P1;SDS_P2;PMS_P1;PMS_P2;Temp;Humidity;BMP_temperature;BMP_pressure;BME280_temperature;BME280_humidity;BME280_pressure;Samples;Min_cycle;Max_cycle;Signal;HPM_P1;HPM_P2
2022/01/25 00:25:46;;;;;;;57.08;43.20;;;8.20;81.30;;;;;;5013620;28;20040;-59
2022/01/25 00:28:24;;;;;;;56.05;43.53;;;8.10;81.50;;;;;;5012583;28;20029;-59
2022/01/25 00:33:24;;;;;;;56.17;42.95;;;8.20;81.50;;;;;;5013507;28;20383;-61
2022/01/25 00:35:50;;;;;;;58.75;43.53;;;8.10;81.50;;;;;;5013315;28;20030;-61
2022/01/25 00:38:15;;;;;;;61.08;45.70;;;8.10;81.70;;;;;;5013564;28;20105;-59
2022/01/25 00:40:41;;;;;;;57.60;43.33;;;8.10;81.90;;;;;;5013096;28;20034;-59
2022/01/25 00:43:06;;;;;;;58.72;44.90;;;8.10;81.50;;;;;;5013255;28;20108;-59
2022/01/25 00:45:32;;;;;;;58.05;44.30;;;8.10;81.30;;;;;;5013558;28;20479;-59
2022/01/25 00:48:01;;;;;;;61.75;45.22;;;8.00;81.50;;;;;;5013064;28;20467;-60
2022/01/25 00:50:31;;;;;;;56.40;42.92;;;8.00;81.40;;;;;;5013311;28;20026;-59
2022/01/25 00:55:23;;;;;;;56.60;44.33;;;8.00;81.30;;;;;;5013243;28;20026;-60
2022/01/25 00:57:48;;;;;;;57.97;43.88;;;8.00;81.50;;;;;;5013128;28;20412;-60
2022/01/25 01:00:14;;;;;;;62.42;46.15;;;8.00;81.40;;;;;;5013176;28;20474;-60
2022/01/25 01:02:40;;;;;;;59.97;43.20;;;7.90;81.30;;;;;;4995381;28;20026;-60
2022/01/25 01:05:07;;;;;;;61.35;42.72;;;7.90;81.20;;;;;;5013123;28;20036;-61
2022/01/25 01:07:33;;;;;;;61.08;44.80;;;8.00;81.10;;;;;;5013307;28;20120;-61
2022/01/25 01:09:59;;;;;;;61.70;45.20;;;8.00;81.20;;;;;;5012781;28;20571;-58
2022/01/25 01:31:04;;;;;;;55.08;42.60;;;7.80;81.70;;;;;;5016403;28;20041;-61
2022/01/25 01:43:55;;;;;;;59.75;43.92;;;7.70;81.60;;;;;;5016713;28;20053;-59
2022/01/25 01:48:59;;;;;;;57.28;43.83;;;7.80;81.60;;;;;;5016201;28;20034;-59
2022/01/25 01:51:38;;;;;;;58.67;46.33;;;7.70;81.50;;;;;;5000255;28;20046;-61
2022/01/25 01:54:15;;;;;;;63.08;45.28;;;7.70;81.80;;;;;;5016342;28;20018;-59
2022/01/25 01:56:42;;;;;;;58.53;44.42;;;7.70;82.30;;;;;;5016226;28;20029;-59
2022/01/25 01:59:12;;;;;;;57.70;44.92;;;7.60;82.50;;;;;;5015831;28;20022;-62
2022/01/25 02:01:40;;;;;;;60.75;46.03;;;7.60;82.40;;;;;;5016230;28;20026;-58
2022/01/25 02:04:09;;;;;;;62.28;45.58;;;7.60;82.50;;;;;;5015832;28;20030;-58
2022/01/25 02:06:34;;;;;;;62.30;46.72;;;7.60;82.70;;;;;;5015883;28;20052;-59
2022/01/25 02:09:00;;;;;;;58.53;45.53;;;7.60;82.70;;;;;;5016117;28;20034;-60
2022/01/25 02:11:26;;;;;;;59.15;45.40;;;7.60;82.70;;;;;;5015892;28;20057;-58
2022/01/25 02:13:52;;;;;;;59.55;44.60;;;7.60;82.80;;;;;;5015835;28;20184;-66
2022/01/25 02:16:44;;;;;;;59.90;47.10;;;7.60;82.90;;;;;;5015763;28;20030;-58
2022/01/25 02:24:42;;;;;;;57.35;45.72;;;7.50;83.00;;;;;;5015576;28;20501;-60
2022/01/25 02:27:08;;;;;;;58.63;47.28;;;7.60;83.00;;;;;;5015761;28;20537;-59
2022/01/25 02:29:34;;;;;;;67.10;48.88;;;7.50;83.10;;;;;;5015551;28;20026;-60
2022/01/25 02:32:00;;;;;;;62.60;47.63;;;7.50;83.10;;;;;;5015671;28;20053;-59
2022/01/25 02:34:26;;;;;;;60.53;46.53;;;7.50;83.00;;;;;;5015962;28;20087;-60
2022/01/25 02:37:01;;;;;;;63.20;48.17;;;7.50;83.20;;;;;;5015253;28;20022;-59
2022/01/25 02:39:27;;;;;;;58.55;45.20;;;7.50;83.10;;;;;;5015864;28;20026;-60
2022/01/25 02:41:53;;;;;;;58.80;45.33;;;7.50;83.20;;;;;;5014301;28;20026;-62
2022/01/25 02:44:24;;;;;;;60.00;45.75;;;7.50;83.30;;;;;;5015483;28;20109;-63
2022/01/25 02:49:17;;;;;;;55.92;45.72;;;7.40;83.50;;;;;;5015087;28;20116;-60
2022/01/25 02:51:48;;;;;;;58.97;45.58;;;7.40;83.60;;;;;;5014892;28;20165;-64
2022/01/25 02:54:15;;;;;;;55.10;43.60;;;7.40;83.60;;;;;;5015336;28;20025;-60
2022/01/25 02:56:43;;;;;;;58.40;45.25;;;7.40;83.70;;;;;;5015023;28;20026;-60
2022/01/25 02:59:10;;;;;;;57.00;44.05;;;7.40;83.70;;;;;;5015090;28;20092;-64
2022/01/25 03:01:37;;;;;;;56.50;44.50;;;7.40;83.70;;;;;;5014841;28;20391;-61
2022/01/25 03:04:04;;;;;;;60.13;45.33;;;7.40;83.90;;;;;;5025614;28;20494;-61
2022/01/25 03:06:30;;;;;;;56.58;43.53;;;7.30;83.90;;;;;;5027521;28;20044;-59
2022/01/25 03:08:56;;;;;;;58.10;45.22;;;7.30;83.90;;;;;;5034873;28;20022;-60
2022/01/25 03:11:24;;;;;;;57.85;44.88;;;7.30;84.00;;;;;;5034228;28;20037;-60
2022/01/25 03:13:53;;;;;;;54.50;43.05;;;7.30;84.10;;;;;;5034599;28;20068;-59
2022/01/25 03:16:53;;;;;;;55.75;44.22;;;7.30;84.20;;;;;;5034275;28;20461;-59
2022/01/25 03:19:41;;;;;;;55.92;42.85;;;7.30;84.50;;;;;;5033384;28;20029;-59
2022/01/25 03:22:29;;;;;;;54.53;43.22;;;7.30;84.40;;;;;;5034296;28;20397;-57
2022/01/25 03:24:55;;;;;;;51.42;41.53;;;7.30;84.60;;;;;;5034503;28;20029;-58
2022/01/25 03:27:20;;;;;;;56.67;42.78;;;7.30;84.90;;;;;;5034192;28;20061;-59
2022/01/25 03:29:46;;;;;;;52.47;41.63;;;7.20;85.10;;;;;;5034371;28;20045;-64
2022/01/25 03:32:11;;;;;;;49.42;40.90;;;7.30;85.20;;;;;;5034003;28;20526;-59
2022/01/25 03:34:37;;;;;;;52.33;41.78;;;7.30;85.30;;;;;;5033969;28;20076;-58
2022/01/25 03:37:03;;;;;;;51.83;41.88;;;7.30;85.30;;;;;;5034028;28;20103;-60
2022/01/25 03:39:29;;;;;;;50.80;40.53;;;7.20;85.30;;;;;;5034247;28;20097;-60
2022/01/25 03:41:54;;;;;;;53.80;42.25;;;7.20;85.50;;;;;;5033999;28;20036;-62
2022/01/25 03:44:20;;;;;;;51.00;41.20;;;7.20;85.60;;;;;;5032774;28;20543;-59
2022/01/25 03:51:58;;;;;;;52.42;42.60;;;7.10;85.70;;;;;;5032804;28;20068;-59
2022/01/25 03:54:24;;;;;;;50.00;42.00;;;7.10;85.70;;;;;;5016158;28;20386;-59
2022/01/25 03:56:49;;;;;;;51.35;41.38;;;7.10;85.60;;;;;;5033865;28;20418;-60
2022/01/25 03:59:15;;;;;;;52.75;41.10;;;7.10;85.60;;;;;;5033854;28;20027;-60
2022/01/25 04:01:41;;;;;;;55.45;42.40;;;7.10;85.70;;;;;;5032797;28;20026;-61
2022/01/25 04:04:10;;;;;;;52.50;42.47;;;7.10;85.90;;;;;;5025369;28;20419;-60
2022/01/25 04:06:36;;;;;;;53.03;40.65;;;7.00;85.90;;;;;;5023281;28;20549;-61
2022/01/25 04:09:06;;;;;;;50.58;41.42;;;7.10;86.00;;;;;;5033739;28;20021;-63
2022/01/25 04:11:31;;;;;;;49.65;41.03;;;7.10;86.00;;;;;;5033330;28;20029;-60
2022/01/25 04:13:58;;;;;;;49.60;41.42;;;7.10;86.00;;;;;;5033331;28;20052;-61
2022/01/25 04:16:30;;;;;;;53.55;40.83;;;7.00;86.10;;;;;;5026404;28;20033;-60
2022/01/25 04:26:43;;;;;;;53.58;40.90;;;7.00;86.30;;;;;;5033514;28;20091;-60
2022/01/25 04:29:09;;;;;;;51.97;41.08;;;7.00;86.50;;;;;;5032239;28;20423;-60
2022/01/25 04:31:36;;;;;;;48.65;40.35;;;7.00;86.70;;;;;;5031127;28;20033;-59
2022/01/25 04:34:13;;;;;;;49.47;39.45;;;7.00;86.90;;;;;;5032838;28;20059;-60
2022/01/25 04:50:06;;;;;;;48.80;40.28;;;7.00;88.00;;;;;;5033342;28;20076;-61
2022/01/25 04:52:40;;;;;;;50.05;39.10;;;7.00;87.90;;;;;;5032857;28;20075;-62
2022/01/25 04:55:19;;;;;;;49.10;40.35;;;7.00;88.00;;;;;;5033164;28;20383;-58
2022/01/25 04:57:52;;;;;;;47.78;39.03;;;7.00;88.10;;;;;;5032910;28;20022;-59
2022/01/25 05:00:21;;;;;;;51.50;39.08;;;7.00;88.30;;;;;;5032831;28;20057;-60
2022/01/25 05:05:29;;;;;;;52.63;41.70;;;7.00;88.40;;;;;;5035697;28;20372;-60
2022/01/25 05:10:21;;;;;;;53.53;41.92;;;7.00;88.60;;;;;;5036974;28;20120;-60
2022/01/25 05:12:53;;;;;;;49.65;39.20;;;7.00;88.50;;;;;;5036932;28;20021;-59
2022/01/25 05:15:38;;;;;;;51.63;41.47;;;7.00;88.70;;;;;;5036725;28;20038;-59
2022/01/25 05:18:15;;;;;;;52.17;40.47;;;7.00;88.60;;;;;;5036772;28;20410;-60
2022/01/25 05:23:25;;;;;;;52.20;42.13;;;7.00;88.70;;;;;;5036660;28;20048;-63
2022/01/25 05:25:50;;;;;;;56.22;45.47;;;7.00;88.90;;;;;;5036646;28;20463;-60
2022/01/25 05:28:16;;;;;;;53.85;43.35;;;7.00;89.20;;;;;;5036436;28;20017;-60
2022/01/25 05:30:42;;;;;;;56.97;44.20;;;7.00;89.20;;;;;;5036055;28;20034;-59
2022/01/25 05:33:07;;;;;;;52.00;41.08;;;7.00;89.40;;;;;;5036773;28;20470;-59
2022/01/25 05:35:33;;;;;;;58.20;41.00;;;7.10;90.00;;;;;;5036371;28;20029;-58
2022/01/25 05:37:59;;;;;;;54.55;43.55;;;7.00;89.40;;;;;;5036406;28;20032;-60
2022/01/25 05:40:44;;;;;;;61.03;44.58;;;7.10;89.60;;;;;;5036370;28;20040;-58
2022/01/25 05:48:31;;;;;;;52.85;41.60;;;7.10;89.70;;;;;;5036695;28;20071;-59
2022/01/25 05:50:57;;;;;;;53.92;41.33;;;7.10;89.50;;;;;;5036105;28;20072;-59
2022/01/25 05:53:23;;;;;;;53.25;40.28;;;7.10;89.50;;;;;;5036164;28;20018;-63
2022/01/25 05:55:48;;;;;;;57.42;42.72;;;7.00;89.50;;;;;;5036008;28;20029;-60
2022/01/25 05:58:14;;;;;;;52.80;40.67;;;7.10;89.90;;;;;;5035758;28;20022;-60
2022/01/25 06:00:40;;;;;;;53.85;40.20;;;7.10;89.60;;;;;;5033479;28;20053;-59
2022/01/25 06:03:07;;;;;;;60.70;43.83;;;7.10;89.60;;;;;;5032061;28;20426;-59
2022/01/25 06:05:33;;;;;;;54.95;42.42;;;7.10;89.60;;;;;;5034068;28;20087;-60
2022/01/25 06:07:59;;;;;;;51.53;40.40;;;7.10;89.70;;;;;;5035015;28;20024;-59
2022/01/25 06:10:24;;;;;;;52.65;41.45;;;7.10;89.90;;;;;;5035883;28;20037;-61
2022/01/25 06:12:50;;;;;;;57.08;43.35;;;7.10;89.70;;;;;;5035704;28;20529;-59
2022/01/25 06:15:15;;;;;;;55.50;42.25;;;7.10;89.80;;;;;;5035374;28;20033;-63
2022/01/25 06:17:41;;;;;;;57.67;43.83;;;7.10;89.70;;;;;;5035706;28;20360;-59
2022/01/25 06:20:07;;;;;;;56.83;43.67;;;7.10;89.80;;;;;;5035429;28;20022;-59
2022/01/25 06:22:33;;;;;;;53.75;42.28;;;7.10;89.80;;;;;;5025711;28;20060;-60
2022/01/25 06:24:59;;;;;;;56.53;43.88;;;7.10;89.90;;;;;;5019820;28;20049;-65
2022/01/25 06:27:25;;;;;;;56.25;43.72;;;7.10;90.00;;;;;;5022767;28;20021;-61
2022/01/25 06:29:50;;;;;;;57.45;43.20;;;7.10;89.80;;;;;;5017688;28;20502;-64
2022/01/25 06:32:18;;;;;;;58.58;43.85;;;7.10;90.00;;;;;;5020610;28;20033;-58
2022/01/25 06:34:44;;;;;;;58.75;43.75;;;7.10;90.00;;;;;;5030443;28;20030;-59
2022/01/25 06:37:12;;;;;;;60.45;44.45;;;7.10;90.00;;;;;;5024023;28;20185;-60
2022/01/25 06:39:38;;;;;;;58.20;43.55;;;7.10;90.00;;;;;;5029514;28;20070;-60
2022/01/25 06:42:05;;;;;;;57.83;45.20;;;7.10;90.10;;;;;;5027457;28;20033;-60
2022/01/25 06:44:33;;;;;;;60.90;44.35;;;7.10;89.90;;;;;;5020615;28;20029;-64
2022/01/25 06:46:58;;;;;;;59.30;45.63;;;7.10;89.80;;;;;;5016190;28;20030;-70
2022/01/25 06:49:24;;;;;;;61.45;46.00;;;7.10;90.00;;;;;;5005221;28;20099;-66
2022/01/25 06:51:50;;;;;;;63.10;46.03;;;7.10;90.00;;;;;;5030626;28;20029;-65
2022/01/25 06:54:15;;;;;;;61.67;45.15;;;7.10;90.10;;;;;;5034866;28;20053;-64
2022/01/25 06:56:41;;;;;;;61.95;45.58;;;7.10;90.10;;;;;;5031070;28;20037;-63
2022/01/25 06:59:07;;;;;;;63.90;46.67;;;7.00;90.00;;;;;;5025697;28;20207;-64
2022/01/25 07:01:32;;;;;;;59.88;45.45;;;7.00;90.10;;;;;;5025482;28;20025;-65
2022/01/25 07:03:58;;;;;;;67.32;47.00;;;7.00;90.20;;;;;;5017740;28;20113;-61
2022/01/25 07:06:23;;;;;;;54.70;42.35;;;7.00;90.30;;;;;;5031599;28;20033;-64
2022/01/25 07:08:49;;;;;;;63.67;46.65;;;7.00;90.40;;;;;;5022373;28;20079;-66
2022/01/25 07:11:14;;;;;;;58.20;44.88;;;6.90;90.50;;;;;;5025933;28;20073;-64
2022/01/25 07:13:41;;;;;;;52.47;40.17;;;7.00;90.50;;;;;;5025011;28;20029;-65
2022/01/25 07:16:06;;;;;;;56.38;42.08;;;6.70;91.40;;;;;;5013753;28;20029;-64
2022/01/25 07:18:32;;;;;;;58.72;45.00;;;6.60;91.20;;;;;;5017508;28;20029;-63
2022/01/25 07:20:58;;;;;;;66.72;48.60;;;6.60;91.20;;;;;;5029823;28;20477;-62
2022/01/25 07:23:24;;;;;;;65.95;46.55;;;6.90;90.60;;;;;;5032876;28;20025;-61
2022/01/25 07:25:49;;;;;;;59.63;45.25;;;7.00;90.30;;;;;;5031941;28;20506;-62
2022/01/25 07:28:16;;;;;;;64.78;47.58;;;7.00;90.20;;;;;;5033627;28;20029;-63
2022/01/25 07:30:41;;;;;;;64.35;46.55;;;7.00;90.00;;;;;;5032427;28;20435;-59
2022/01/25 07:33:07;;;;;;;59.40;45.35;;;7.10;90.00;;;;;;5016175;28;20574;-64
2022/01/25 07:35:34;;;;;;;65.50;47.00;;;7.10;89.80;;;;;;5023908;28;20462;-59
2022/01/25 07:38:00;;;;;;;69.45;46.97;;;7.10;89.70;;;;;;5033243;28;20032;-63
2022/01/25 07:40:25;;;;;;;64.20;48.35;;;7.10;90.10;;;;;;5028712;28;20021;-65
2022/01/25 07:42:51;;;;;;;67.47;48.15;;;7.00;90.00;;;;;;5025343;28;20033;-65
2022/01/25 07:45:16;;;;;;;64.93;48.63;;;7.10;89.70;;;;;;5031704;28;20030;-64
2022/01/25 07:47:42;;;;;;;60.42;46.33;;;7.10;89.70;;;;;;5033501;28;20102;-64
2022/01/25 07:50:10;;;;;;;63.25;48.00;;;7.10;89.80;;;;;;5034062;28;20517;-62
2022/01/25 07:52:36;;;;;;;62.63;46.63;;;7.10;90.00;;;;;;5032804;28;20533;-64
2022/01/25 07:55:04;;;;;;;67.80;49.28;;;7.10;90.00;;;;;;5033698;28;20437;-65
2022/01/25 07:57:30;;;;;;;66.00;47.42;;;7.20;89.60;;;;;;5033477;28;20013;-65
2022/01/25 07:59:57;;;;;;;65.75;48.50;;;7.20;89.50;;;;;;5033628;28;20320;-65
2022/01/25 08:02:22;;;;;;;65.32;47.15;;;7.20;89.40;;;;;;5031102;28;20113;-62
2022/01/25 08:04:48;;;;;;;60.65;44.67;;;7.20;89.40;;;;;;5024996;28;20133;-64
2022/01/25 08:07:14;;;;;;;63.20;48.58;;;7.10;90.00;;;;;;5012240;28;20052;-66
2022/01/25 08:09:39;;;;;;;65.38;49.63;;;7.10;90.00;;;;;;5016471;28;20036;-63
2022/01/25 08:12:05;;;;;;;65.28;46.50;;;7.20;89.50;;;;;;5029791;28;20072;-66
2022/01/25 08:14:31;;;;;;;71.43;49.38;;;7.20;89.60;;;;;;5018347;28;20373;-62
2022/01/25 08:16:57;;;;;;;67.13;49.25;;;7.20;89.30;;;;;;5011891;28;20475;-60
2022/01/25 08:19:22;;;;;;;68.70;48.30;;;7.20;89.20;;;;;;5026438;28;20379;-59
2022/01/25 08:21:48;;;;;;;63.25;47.03;;;7.20;89.10;;;;;;5030551;28;20473;-59
2022/01/25 08:24:16;;;;;;;65.38;46.85;;;7.20;89.10;;;;;;5029235;28;20144;-58
2022/01/25 08:26:43;;;;;;;63.80;47.80;;;7.20;89.40;;;;;;5031307;28;20018;-58
2022/01/25 08:29:09;;;;;;;64.85;47.25;;;7.20;89.60;;;;;;5026329;28;20091;-59
2022/01/25 08:31:36;;;;;;;67.68;48.58;;;7.30;89.60;;;;;;5022051;28;20042;-58
2022/01/25 08:34:02;;;;;;;69.75;48.88;;;7.20;89.30;;;;;;5013082;28;20130;-59
2022/01/25 08:36:28;;;;;;;66.13;47.55;;;7.30;89.50;;;;;;5011627;28;20712;-58
2022/01/25 08:38:54;;;;;;;67.03;48.03;;;7.30;89.60;;;;;;5012007;28;20050;-57
2022/01/25 08:41:21;;;;;;;62.88;46.67;;;7.30;89.70;;;;;;5016061;28;20213;-57
2022/01/25 08:43:47;;;;;;;65.55;48.17;;;7.30;89.50;;;;;;5020594;28;20025;-58
2022/01/25 08:46:14;;;;;;;62.88;47.83;;;7.30;89.50;;;;;;5036890;28;20081;-62
2022/01/25 08:48:39;;;;;;;63.85;47.60;;;7.30;89.70;;;;;;5020358;28;20030;-59
2022/01/25 08:51:06;;;;;;;62.47;46.78;;;7.40;89.90;;;;;;5032284;28;20038;-59
2022/01/25 08:53:33;;;;;;;61.85;46.60;;;7.40;89.70;;;;;;5018305;28;20022;-62
2022/01/25 08:55:58;;;;;;;64.78;48.13;;;7.40;89.40;;;;;;5014000;28;20116;-61
2022/01/25 08:58:24;;;;;;;62.80;47.00;;;7.50;89.80;;;;;;5027663;28;20115;-58
2022/01/25 09:00:50;;;;;;;66.10;46.78;;;7.40;89.80;;;;;;5032760;28;20021;-63
2022/01/25 09:03:15;;;;;;;68.47;48.50;;;7.40;89.60;;;;;;5030567;28;20045;-58
2022/01/25 09:05:41;;;;;;;70.20;48.38;;;7.40;89.60;;;;;;5031432;28;20501;-58
2022/01/25 09:08:07;;;;;;;65.82;48.00;;;7.50;89.80;;;;;;5032333;28;20025;-59
2022/01/25 09:10:33;;;;;;;70.78;48.30;;;7.40;89.90;;;;;;5032234;28;20033;-65
2022/01/25 09:13:00;;;;;;;62.85;47.08;;;7.50;89.90;;;;;;5032024;28;20080;-61
2022/01/25 09:15:26;;;;;;;64.45;47.63;;;7.40;89.80;;;;;;5031290;28;20522;-57
2022/01/25 09:17:52;;;;;;;67.55;47.28;;;7.50;89.70;;;;;;5032302;28;20061;-57
2022/01/25 09:20:18;;;;;;;65.65;47.00;;;7.60;90.20;;;;;;5032491;28;20045;-64
2022/01/25 09:22:44;;;;;;;64.68;45.70;;;7.60;89.70;;;;;;5032428;28;20065;-58
2022/01/25 09:25:11;;;;;;;66.53;47.85;;;7.60;89.40;;;;;;5032657;28;20021;-56
2022/01/25 09:27:37;;;;;;;64.15;47.30;;;7.60;89.40;;;;;;5032283;28;20033;-59
2022/01/25 09:30:04;;;;;;;66.55;48.63;;;7.70;89.00;;;;;;5032156;28;20037;-64
2022/01/25 09:32:29;;;;;;;68.03;48.75;;;7.70;89.20;;;;;;5032209;28;20025;-58
2022/01/25 09:34:55;;;;;;;66.10;46.40;;;7.70;89.00;;;;;;5025982;28;20033;-57
2022/01/25 09:37:20;;;;;;;71.30;49.75;;;7.70;89.40;;;;;;5031803;28;20379;-65
2022/01/25 09:39:46;;;;;;;68.00;49.33;;;7.70;89.20;;;;;;5031220;28;20026;-56
2022/01/25 09:42:11;;;;;;;67.72;47.55;;;7.70;89.20;;;;;;5031762;28;20470;-64
2022/01/25 09:44:40;;;;;;;69.43;50.35;;;7.70;88.90;;;;;;5032077;28;20033;-57
2022/01/25 09:47:06;;;;;;;71.45;49.08;;;7.80;88.90;;;;;;5032289;28;20022;-64
2022/01/25 09:49:33;;;;;;;68.30;49.88;;;7.80;88.80;;;;;;5032276;28;20025;-58
2022/01/25 09:52:01;;;;;;;73.10;49.67;;;7.80;88.80;;;;;;5035137;28;20033;-57
2022/01/25 09:54:27;;;;;;;68.78;48.47;;;7.80;88.70;;;;;;5034859;28;20048;-57
2022/01/25 09:56:53;;;;;;;65.65;45.58;;;7.90;88.50;;;;;;5035506;28;20029;-61
2022/01/25 09:59:18;;;;;;;67.93;49.53;;;7.90;87.80;;;;;;5033087;28;20033;-59
2022/01/25 10:01:44;;;;;;;70.57;50.00;;;7.90;87.70;;;;;;5024824;28;20037;-66
2022/01/25 10:04:40;;;;;;;71.82;49.05;;;7.90;87.70;;;;;;5035692;28;20036;-65
2022/01/25 10:07:08;;;;;;;70.18;50.25;;;8.00;87.70;;;;;;5036082;28;20124;-62
2022/01/25 10:09:39;;;;;;;78.18;52.33;;;7.90;88.30;;;;;;5035055;28;20025;-62
2022/01/25 10:12:25;;;;;;;72.55;50.58;;;7.90;88.30;;;;;;5034651;28;20470;-59
2022/01/25 10:15:00;;;;;;;67.78;48.97;;;8.00;88.20;;;;;;5035129;28;20048;-60
2022/01/25 10:17:33;;;;;;;70.15;50.05;;;8.00;87.90;;;;;;5034813;28;20523;-58
2022/01/25 10:19:59;;;;;;;75.35;52.33;;;8.00;87.60;;;;;;5034527;28;20087;-63
2022/01/25 10:22:25;;;;;;;75.10;52.60;;;8.00;87.70;;;;;;5034365;28;20037;-61
2022/01/25 10:24:50;;;;;;;80.25;54.00;;;8.00;88.00;;;;;;5035064;28;20170;-65
2022/01/25 10:27:16;;;;;;;78.45;53.20;;;8.10;87.20;;;;;;5035452;28;20493;-63
2022/01/25 10:29:41;;;;;;;77.50;52.10;;;8.10;87.50;;;;;;5034798;28;20021;-58
2022/01/25 10:32:14;;;;;;;77.60;52.83;;;8.00;87.00;;;;;;5034941;28;20040;-57
2022/01/25 10:34:43;;;;;;;;;;;8.10;87.20;;;;;;5034924;28;20104;-63
2022/01/25 10:37:14;;;;;;;77.28;51.78;;;8.10;87.40;;;;;;5034418;28;19909;-58
2022/01/25 10:39:45;;;;;;;78.82;53.25;;;8.10;87.30;;;;;;5034500;28;20021;-57
2022/01/25 10:42:25;;;;;;;78.40;54.55;;;8.10;87.80;;;;;;5034554;28;20441;-64
2022/01/25 10:44:59;;;;;;;78.55;53.15;;;8.10;87.50;;;;;;5034582;28;20053;-56
2022/01/25 10:47:44;;;;;;;73.20;51.90;;;8.10;86.90;;;;;;5031964;28;20033;-61
2022/01/25 10:50:23;;;;;;;76.75;52.53;;;8.20;87.40;;;;;;5029227;28;20398;-59
2022/01/25 10:53:09;;;;;;;77.07;54.08;;;8.20;87.50;;;;;;5033006;28;20060;-62
2022/01/25 10:55:46;;;;;;;83.22;53.45;;;8.20;87.10;;;;;;5031414;28;20025;-56
2022/01/25 10:58:12;;;;;;;77.18;54.45;;;8.20;87.00;;;;;;5033530;28;20083;-58
2022/01/25 11:00:43;;;;;;;80.25;54.78;;;8.30;86.90;;;;;;5033272;28;20033;-63
2022/01/25 11:03:09;;;;;;;82.60;56.00;;;8.30;86.60;;;;;;5032954;28;20034;-59
2022/01/25 11:05:38;;;;;;;76.10;53.78;;;8.30;86.60;;;;;;5033309;28;20018;-57
2022/01/25 11:08:19;;;;;;;76.60;52.78;;;8.30;86.20;;;;;;5033193;28;20033;-65
2022/01/25 11:11:00;;;;;;;78.18;51.83;;;8.30;86.30;;;;;;5030179;28;20128;-63
2022/01/25 11:15:55;;;;;;;81.65;54.95;;;8.30;86.50;;;;;;5034490;28;20038;-64
2022/01/25 11:18:20;;;;;;;80.20;52.20;;;8.30;86.60;;;;;;5034328;28;20049;-62
2022/01/25 11:20:49;;;;;;;73.72;51.97;;;8.30;86.40;;;;;;5033940;28;20091;-64
2022/01/25 11:23:16;;;;;;;79.93;54.67;;;8.30;86.30;;;;;;5031978;28;20021;-60
2022/01/25 11:25:44;;;;;;;83.07;57.53;;;8.30;86.20;;;;;;5020229;28;20037;-66
2022/01/25 11:28:10;;;;;;;75.35;53.80;;;8.40;85.90;;;;;;5027179;28;20091;-66
2022/01/25 11:30:38;;;;;;;80.32;56.45;;;8.40;86.20;;;;;;5028066;28;20029;-65
2022/01/25 11:33:05;;;;;;;78.85;56.03;;;8.40;85.50;;;;;;5033079;28;20053;-64
2022/01/25 11:35:31;;;;;;;81.30;56.70;;;8.40;85.50;;;;;;5033163;28;20022;-59
2022/01/25 11:37:57;;;;;;;78.97;54.78;;;8.40;85.60;;;;;;5031928;28;20113;-65
2022/01/25 11:40:30;;;;;;;81.03;56.22;;;8.40;86.30;;;;;;5033661;28;20065;-58
2022/01/25 11:43:05;;;;;;;83.00;56.03;;;8.40;85.50;;;;;;5032495;28;20036;-58
2022/01/25 11:45:33;;;;;;;78.65;54.85;;;8.40;85.60;;;;;;5033715;28;20061;-58
2022/01/25 11:47:59;;;;;;;75.20;52.78;;;8.50;85.70;;;;;;5033422;28;20027;-59
2022/01/25 11:50:31;;;;;;;78.60;54.38;;;8.50;85.40;;;;;;5033215;28;20062;-61
2022/01/25 11:53:05;;;;;;;81.20;55.78;;;8.50;85.60;;;;;;5033107;28;20025;-60
2022/01/25 11:55:34;;;;;;;73.43;50.92;;;8.60;85.70;;;;;;5034010;28;20029;-59
2022/01/25 11:58:01;;;;;;;69.43;47.72;;;8.50;86.30;;;;;;5033362;28;20033;-66
2022/01/25 12:00:46;;;;;;;79.72;55.35;;;8.50;86.70;;;;;;5033486;28;20501;-58
2022/01/25 12:03:42;;;;;;;75.07;52.13;;;8.50;86.00;;;;;;5033339;28;20502;-60
2022/01/25 12:06:12;;;;;;;79.20;55.22;;;8.50;86.40;;;;;;5003768;28;20037;-62
2022/01/25 12:08:52;;;;;;;71.82;49.95;;;8.50;86.50;;;;;;5033252;28;20032;-58
2022/01/25 12:11:36;;;;;;;69.43;50.15;;;8.50;86.70;;;;;;5032896;28;20498;-59
2022/01/25 12:14:18;;;;;;;84.70;55.70;;;8.50;87.20;;;;;;5029097;28;20036;-59
2022/01/25 12:16:51;;;;;;;74.20;52.92;;;8.60;86.10;;;;;;5031842;28;20427;-57
2022/01/25 12:19:51;;;;;;;80.65;54.08;;;8.60;85.90;;;;;;5031071;28;20030;-59
2022/01/25 12:22:26;;;;;;;82.07;56.33;;;8.60;85.60;;;;;;5030572;28;20371;-58
2022/01/25 12:25:19;;;;;;;84.93;56.22;;;8.70;85.00;;;;;;5030842;28;20056;-59
2022/01/25 12:27:52;;;;;;;85.60;58.92;;;8.80;84.70;;;;;;5033312;28;20028;-61
2022/01/25 12:30:36;;;;;;;88.70;59.83;;;8.70;85.70;;;;;;5032077;28;20366;-59
2022/01/25 12:33:09;;;;;;;90.45;60.60;;;8.80;84.60;;;;;;5033125;28;20063;-60
2022/01/25 12:35:54;;;;;;;90.60;62.85;;;8.80;84.30;;;;;;5033139;28;20029;-60
2022/01/25 12:38:38;;;;;;;91.82;64.70;;;8.80;84.40;;;;;;5033179;28;20151;-58
2022/01/25 12:41:15;;;;;;;86.70;58.78;;;8.80;84.70;;;;;;5032973;28;20470;-58
2022/01/25 12:43:53;;;;;;;89.60;61.13;;;8.80;84.40;;;;;;5032969;28;20371;-56
2022/01/25 12:46:29;;;;;;;89.32;60.58;;;8.80;84.20;;;;;;5032517;28;20044;-59
2022/01/25 12:49:10;;;;;;;88.93;59.70;;;8.90;83.90;;;;;;5033131;28;20037;-59
2022/01/25 12:51:38;;;;;;;86.13;60.72;;;8.90;83.90;;;;;;5033101;28;20029;-56
2022/01/25 12:54:07;;;;;;;83.63;56.75;;;8.70;84.20;;;;;;5033034;28;20024;-60
2022/01/25 12:56:36;;;;;;;87.30;57.85;;;8.80;84.70;;;;;;5032875;28;20028;-57
2022/01/25 12:59:14;;;;;;;83.20;56.78;;;8.80;84.30;;;;;;5032218;28;20045;-61
2022/01/25 13:01:42;;;;;;;88.93;57.97;;;8.80;84.30;;;;;;5032701;28;20026;-59
2022/01/25 13:04:10;;;;;;;85.68;58.03;;;8.80;84.40;;;;;;5032648;28;20430;-64
2022/01/25 13:06:43;;;;;;;86.60;59.53;;;8.90;84.50;;;;;;5032952;28;20117;-66
2022/01/25 13:14:43;;;;;;;90.25;57.05;;;8.90;83.70;;;;;;5028410;28;20414;-62
2022/01/25 13:17:21;;;;;;;84.00;57.00;;;8.90;83.90;;;;;;5032870;28;20029;-59
2022/01/25 13:19:55;;;;;;;85.05;56.30;;;8.90;84.30;;;;;;5032467;28;20025;-64
2022/01/25 13:22:34;;;;;;;78.70;54.65;;;8.90;84.20;;;;;;5032569;28;20037;-59
2022/01/25 13:25:27;;;;;;;82.20;55.75;;;8.90;83.90;;;;;;5031424;28;20045;-60
2022/01/25 13:27:57;;;;;;;83.87;54.93;;;9.00;83.40;;;;;;5036418;28;20017;-63
2022/01/25 13:30:41;;;;;;;83.53;55.63;;;9.00;83.90;;;;;;5036147;28;20033;-61
2022/01/25 13:33:18;;;;;;;84.30;57.45;;;8.90;83.80;;;;;;5036509;28;20029;-62
2022/01/25 13:35:50;;;;;;;84.72;56.17;;;9.00;83.60;;;;;;5036323;28;20022;-61
2022/01/25 13:38:25;;;;;;;84.88;57.65;;;9.00;83.50;;;;;;5019507;28;20022;-60
2022/01/25 13:46:09;;;;;;;84.22;56.42;;;8.90;83.50;;;;;;5035960;28;20394;-64
2022/01/25 13:48:35;;;;;;;85.95;57.15;;;9.00;83.40;;;;;;5035978;28;20470;-59
2022/01/25 13:51:08;;;;;;;87.18;57.47;;;9.00;83.40;;;;;;5036048;28;20153;-63
2022/01/25 13:53:35;;;;;;;;;;;9.10;83.50;;;;;;5036576;28;20475;-63
2022/01/25 13:56:01;;;;;;;80.50;53.75;;;9.10;83.80;;;;;;5035844;28;20388;-62
2022/01/25 13:58:33;;;;;;;79.07;54.08;;;9.10;83.80;;;;;;5035704;28;20017;-60
2022/01/25 14:01:01;;;;;;;87.25;55.67;;;9.10;83.80;;;;;;5035874;28;20068;-60
2022/01/25 14:03:42;;;;;;;83.38;55.35;;;9.20;82.90;;;;;;5035220;28;20053;-65
2022/01/25 14:06:31;;;;;;;92.45;59.63;;;9.00;83.60;;;;;;5021144;28;20043;-58
2022/01/25 14:09:13;;;;;;;89.07;59.72;;;9.10;82.80;;;;;;5031801;28;20029;-59
2022/01/25 14:25:33;;;;;;;93.38;60.22;;;9.20;82.50;;;;;;5033019;28;20065;-60
2022/01/25 14:28:01;;;;;;;87.93;59.03;;;9.20;82.30;;;;;;5034805;28;20474;-65
2022/01/25 14:30:30;;;;;;;89.45;59.83;;;9.20;82.80;;;;;;5034823;28;20030;-61
2022/01/25 14:33:00;;;;;;;88.55;56.38;;;9.30;83.00;;;;;;5034353;28;20115;-60
2022/01/25 14:35:25;;;;;;;90.22;56.83;;;9.30;83.00;;;;;;5034161;28;20026;-60
2022/01/25 14:37:51;;;;;;;89.55;56.92;;;9.30;82.70;;;;;;5034126;28;20021;-61
2022/01/25 14:40:17;;;;;;;86.07;55.67;;;9.30;83.00;;;;;;5036792;28;20064;-58
2022/01/25 14:42:45;;;;;;;92.50;58.20;;;9.30;83.00;;;;;;5034906;28;20036;-60
2022/01/25 14:45:15;;;;;;;94.47;60.63;;;9.40;82.70;;;;;;5035166;28;20025;-62
2022/01/25 14:47:45;;;;;;;91.88;60.03;;;9.40;82.50;;;;;;5030381;28;20529;-66
2022/01/25 14:50:31;;;;;;;85.85;54.72;;;9.40;82.40;;;;;;5026132;28;20030;-65
2022/01/25 14:53:12;;;;;;;92.63;57.80;;;9.30;82.60;;;;;;5030494;28;20022;-61
2022/01/25 14:55:41;;;;;;;89.70;57.03;;;9.30;83.20;;;;;;5029299;28;20471;-61
2022/01/25 15:00:56;;;;;;;88.85;59.10;;;9.40;82.70;;;;;;5031108;28;20105;-62
2022/01/25 15:03:24;;;;;;;91.70;58.10;;;9.40;82.60;;;;;;5034019;28;20034;-60
2022/01/25 15:05:51;;;;;;;91.13;58.83;;;9.40;82.40;;;;;;5031830;28;20030;-61
2022/01/25 15:08:19;;;;;;;88.63;56.22;;;9.40;82.50;;;;;;5032462;28;20107;-59